Time;durP1;ratioP1;P1;durP2;ratioP2;P2;SDS_P1;SDS_P2;PMS_P1;PMS_P2;Temp;Humidity;BMP_temperature;BMP_pressure;BME280_temperature;BME280_humidity;BME280_pressure;Samples;Min_cycle;Max_cycle;Signal;HPM_P1;HPM_P2
2022/12/11 00:02:07;;;;;;;32.67;19.57;;;2.30;1.00;;;;;;4989314;28;20238;-57
2022/12/11 00:04:32;;;;;;;34.27;19.90;;;2.30;1.00;;;;;;4983652;28;20456;-57
2022/12/11 00:06:58;;;;;;;31.10;18.67;;;2.20;1.00;;;;;;4989326;28;20889;-56
2022/12/11 00:09:24;;;;;;;32.13;20.17;;;2.30;1.00;;;;;;4989379;28;20185;-58
2022/12/11 00:11:49;;;;;;;29.47;18.40;;;2.40;1.00;;;;;;4970388;28;20201;-57
2022/12/11 00:14:15;;;;;;;31.60;19.87;;;2.30;1.00;;;;;;4984280;28;20670;-58
2022/12/11 00:16:41;;;;;;;28.73;19.10;;;2.20;1.00;;;;;;4987239;28;20195;-57
2022/12/11 00:19:07;;;;;;;30.30;19.37;;;2.10;1.00;;;;;;4987075;28;20631;-57
2022/12/11 00:21:33;;;;;;;29.03;18.43;;;2.20;1.00;;;;;;4987575;28;20451;-58
2022/12/11 00:23:59;;;;;;;32.00;19.73;;;2.30;1.00;;;;;;4985757;28;20465;-57
2022/12/11 00:26:25;;;;;;;31.73;19.63;;;2.30;1.00;;;;;;4982689;28;20502;-57
2022/12/11 00:28:55;;;;;;;33.90;18.97;;;2.30;1.00;;;;;;4988263;28;20477;-56
2022/12/11 00:31:22;;;;;;;35.03;20.77;;;2.30;1.00;;;;;;4986992;28;20193;-57
2022/12/11 00:33:48;;;;;;;32.90;19.73;;;2.40;1.00;;;;;;4992387;28;20541;-57
2022/12/11 00:36:20;;;;;;;31.07;19.07;;;2.40;1.00;;;;;;4991149;28;20452;-57
2022/12/11 00:38:47;;;;;;;28.40;18.13;;;2.50;1.00;;;;;;4989107;28;20780;-56
2022/12/11 00:41:13;;;;;;;29.30;19.00;;;2.40;1.00;;;;;;4986920;28;20459;-57
2022/12/11 00:43:39;;;;;;;31.37;19.27;;;2.40;1.00;;;;;;4986168;28;20469;-56
2022/12/11 00:46:05;;;;;;;27.43;17.00;;;2.40;1.00;;;;;;4998208;28;20896;-57
2022/12/11 00:48:30;;;;;;;32.30;18.50;;;2.30;1.00;;;;;;4983194;28;20298;-59
2022/12/11 00:50:56;;;;;;;32.40;18.80;;;2.20;1.00;;;;;;4997420;28;20191;-57
2022/12/11 00:53:21;;;;;;;32.17;21.00;;;2.20;1.00;;;;;;4986274;28;20240;-58
2022/12/11 00:55:47;;;;;;;31.90;19.03;;;2.20;1.00;;;;;;4984918;28;20207;-57
2022/12/11 00:58:13;;;;;;;28.73;18.50;;;2.20;1.00;;;;;;4987299;28;20283;-57
2022/12/11 01:00:40;;;;;;;31.20;20.30;;;2.20;1.00;;;;;;4969586;28;20196;-57
2022/12/11 01:03:06;;;;;;;32.70;18.97;;;2.30;1.00;;;;;;4983595;28;20542;-59
2022/12/11 01:05:32;;;;;;;29.10;18.20;;;2.20;1.00;;;;;;4984254;28;20972;-59
2022/12/11 01:07:58;;;;;;;27.53;19.70;;;2.10;1.00;;;;;;4986599;28;20466;-59
2022/12/11 01:10:24;;;;;;;30.43;19.30;;;2.10;1.00;;;;;;4984233;28;20797;-59
2022/12/11 01:12:51;;;;;;;28.57;18.87;;;2.20;1.00;;;;;;4987939;28;20216;-58
2022/12/11 01:15:18;;;;;;;24.70;17.47;;;2.20;1.00;;;;;;4985014;28;20830;-58
2022/12/11 01:17:44;;;;;;;28.67;18.20;;;2.20;1.00;;;;;;4988102;28;20806;-58
2022/12/11 01:20:10;;;;;;;28.57;18.80;;;2.10;1.00;;;;;;4991943;28;20453;-58
2022/12/11 01:22:36;;;;;;;30.80;18.87;;;2.00;1.00;;;;;;4992678;28;20443;-58
2022/12/11 01:25:02;;;;;;;28.23;19.00;;;1.90;1.00;;;;;;4992541;28;20965;-58
2022/12/11 01:27:27;;;;;;;30.67;18.90;;;2.00;1.00;;;;;;4986251;28;20304;-59
2022/12/11 01:29:53;;;;;;;29.97;18.00;;;2.00;1.00;;;;;;4991323;28;20875;-60
2022/12/11 01:32:19;;;;;;;28.60;17.00;;;2.10;1.00;;;;;;4993415;28;20193;-58
2022/12/11 01:34:44;;;;;;;27.33;17.50;;;2.10;1.00;;;;;;5002883;28;20201;-58
2022/12/11 01:37:10;;;;;;;25.70;17.40;;;2.00;1.00;;;;;;4988874;28;20192;-58
2022/12/11 01:39:37;;;;;;;29.00;17.67;;;2.50;1.00;;;;;;4991536;28;20262;-59
2022/12/11 01:42:03;;;;;;;39.37;18.77;;;1.90;1.00;;;;;;4993654;28;20594;-58
2022/12/11 01:44:29;;;;;;;29.60;18.30;;;1.90;1.00;;;;;;4993182;28;20443;-60
2022/12/11 01:46:54;;;;;;;26.80;17.17;;;1.60;1.00;;;;;;4989073;28;20989;-59
2022/12/11 01:49:24;;;;;;;23.50;16.03;;;2.00;1.00;;;;;;4979648;28;20275;-57
2022/12/11 01:52:00;;;;;;;30.20;18.40;;;2.00;1.00;;;;;;4979414;28;20193;-58
2022/12/11 01:54:27;;;;;;;33.97;18.13;;;1.90;1.00;;;;;;4978724;28;20476;-59
2022/12/11 01:56:56;;;;;;;29.20;16.37;;;1.90;1.00;;;;;;4975096;28;20458;-58
2022/12/11 01:59:24;;;;;;;27.43;17.83;;;3.60;1.00;;;;;;4978787;28;20474;-58
2022/12/11 02:01:57;;;;;;;29.03;16.97;;;2.00;1.00;;;;;;4988481;28;20780;-59
2022/12/11 02:04:24;;;;;;;31.30;18.53;;;1.90;1.00;;;;;;4987646;28;20481;-58
2022/12/11 02:06:51;;;;;;;22.97;15.00;;;1.90;1.00;;;;;;4976672;28;20530;-59
2022/12/11 02:09:30;;;;;;;26.23;18.20;;;1.90;1.00;;;;;;4990583;28;20451;-59
2022/12/11 02:12:15;;;;;;;30.17;18.13;;;2.00;1.00;;;;;;4987293;28;20960;-59
2022/12/11 02:15:07;;;;;;;24.63;15.90;;;2.10;1.00;;;;;;4988587;28;20494;-58
2022/12/11 02:17:40;;;;;;;24.50;14.57;;;2.20;1.00;;;;;;4989574;28;20743;-59
2022/12/11 02:20:09;;;;;;;23.07;15.03;;;2.10;1.00;;;;;;4988138;28;20490;-58
2022/12/11 02:23:13;;;;;;;29.27;16.77;;;2.10;1.00;;;;;;4983393;28;20509;-59
2022/12/11 02:26:02;;;;;;;25.50;15.50;;;2.10;1.00;;;;;;4984695;28;20499;-58
2022/12/11 02:28:42;;;;;;;28.00;17.73;;;2.00;1.00;;;;;;4991729;28;20475;-60
2022/12/11 02:31:35;;;;;;;25.10;15.30;;;1.90;1.00;;;;;;4986071;28;20570;-59
2022/12/11 02:34:08;;;;;;;27.80;15.70;;;2.00;1.00;;;;;;4986100;28;20453;-59
2022/12/11 02:36:38;;;;;;;26.40;16.50;;;1.90;1.00;;;;;;4986126;28;20455;-59
2022/12/11 02:39:08;;;;;;;25.60;15.57;;;1.90;1.00;;;;;;4984921;28;20551;-59
2022/12/11 02:41:34;;;;;;;26.50;14.87;;;1.90;1.00;;;;;;4984101;28;20455;-58
2022/12/11 02:44:02;;;;;;;26.23;16.40;;;2.00;1.00;;;;;;4988898;28;20884;-59
2022/12/11 02:46:29;;;;;;;25.03;15.50;;;2.00;1.00;;;;;;4983864;28;20494;-57
2022/12/11 02:48:56;;;;;;;23.30;15.50;;;2.10;1.00;;;;;;4991373;28;20471;-58
2022/12/11 02:51:29;;;;;;;23.60;14.20;;;2.00;1.00;;;;;;4976213;28;20461;-56
2022/12/11 02:53:58;;;;;;;24.03;15.33;;;1.90;1.00;;;;;;4990433;28;20547;-58
2022/12/11 02:56:29;;;;;;;25.70;15.00;;;1.90;1.00;;;;;;4986018;28;20546;-59
2022/12/11 02:59:00;;;;;;;23.90;15.50;;;1.80;1.00;;;;;;4986650;28;20459;-58
2022/12/11 03:01:26;;;;;;;25.77;17.40;;;1.80;1.00;;;;;;4988086;28;20455;-58
2022/12/11 03:03:52;;;;;;;25.70;14.77;;;1.90;1.00;;;;;;4990302;28;20515;-60
2022/12/11 03:06:23;;;;;;;27.00;16.63;;;1.90;1.00;;;;;;4987863;28;20459;-58
2022/12/11 03:08:50;;;;;;;23.97;15.93;;;2.00;1.00;;;;;;4988394;28;20456;-58
2022/12/11 03:11:16;;;;;;;21.40;15.20;;;2.00;1.00;;;;;;4986396;28;20905;-58
2022/12/11 03:13:42;;;;;;;25.77;15.33;;;2.00;1.00;;;;;;4986907;28;20458;-58
2022/12/11 03:16:29;;;;;;;24.00;15.63;;;1.80;1.00;;;;;;4982202;28;20447;-58
2022/12/11 03:19:10;;;;;;;19.57;12.73;;;1.80;1.00;;;;;;4987386;28;21030;-59
2022/12/11 03:21:53;;;;;;;24.03;14.30;;;1.80;1.00;;;;;;4969563;28;20459;-58
2022/12/11 03:24:30;;;;;;;23.13;14.20;;;1.80;1.00;;;;;;4988424;28;20452;-59
2022/12/11 03:27:10;;;;;;;22.60;14.43;;;1.90;1.00;;;;;;4979959;28;20463;-58
2022/12/11 03:29:46;;;;;;;26.90;14.63;;;1.80;1.00;;;;;;4990018;28;20455;-59
2022/12/11 03:32:18;;;;;;;25.20;14.83;;;1.80;1.00;;;;;;4994763;28;20798;-58
2022/12/11 03:34:51;;;;;;;22.20;14.07;;;1.80;1.00;;;;;;4978639;28;20448;-60
2022/12/11 03:37:20;;;;;;;25.73;15.03;;;1.80;1.00;;;;;;4988764;28;20999;-59
2022/12/11 03:39:50;;;;;;;23.53;15.80;;;1.90;1.00;;;;;;4989066;28;20809;-58
2022/12/11 03:42:18;;;;;;;22.83;14.00;;;1.90;1.00;;;;;;4973690;28;20453;-57
2022/12/11 03:44:48;;;;;;;23.77;15.37;;;2.00;1.00;;;;;;4984491;28;20590;-58
2022/12/11 03:47:20;;;;;;;21.33;13.43;;;2.20;1.00;;;;;;4984418;28;20487;-58
2022/12/11 03:49:47;;;;;;;23.47;15.70;;;2.20;1.00;;;;;;4988582;28;20802;-59
2022/12/11 03:52:14;;;;;;;22.60;15.20;;;2.30;1.00;;;;;;4987143;28;20455;-58
2022/12/11 03:54:42;;;;;;;22.70;14.40;;;2.40;1.00;;;;;;4981544;28;20448;-59
2022/12/11 03:57:12;;;;;;;24.07;14.20;;;2.20;1.00;;;;;;4977094;28;21214;-58
2022/12/11 03:59:37;;;;;;;24.80;14.83;;;2.10;1.00;;;;;;4976053;28;20450;-58
2022/12/11 04:02:09;;;;;;;22.70;14.53;;;2.10;1.00;;;;;;4971870;28;20545;-57
2022/12/11 04:04:39;;;;;;;25.13;15.20;;;2.00;1.00;;;;;;4983268;28;20197;-58
2022/12/11 04:07:05;;;;;;;29.03;15.87;;;1.90;1.00;;;;;;4980744;28;20530;-59
2022/12/11 04:09:31;;;;;;;20.30;14.10;;;1.90;1.00;;;;;;4967616;28;20444;-58
2022/12/11 04:11:57;;;;;;;22.73;14.70;;;1.90;1.00;;;;;;4982187;28;20456;-59
2022/12/11 04:17:07;;;;;;;22.70;15.00;;;1.70;1.00;;;;;;4978903;28;20215;-58
2022/12/11 04:25:05;;;;;;;21.77;13.97;;;1.90;1.00;;;;;;4979682;28;21043;-57
2022/12/11 04:27:49;;;;;;;23.17;14.70;;;1.90;1.00;;;;;;4983906;28;20479;-58
2022/12/11 04:30:23;;;;;;;23.03;13.93;;;1.80;1.00;;;;;;4986676;28;20521;-58
2022/12/11 04:32:49;;;;;;;23.07;13.70;;;1.70;1.00;;;;;;4985415;28;20973;-57
2022/12/11 04:35:15;;;;;;;24.90;14.13;;;1.70;1.00;;;;;;4986460;28;20479;-58
2022/12/11 04:37:41;;;;;;;19.90;13.53;;;1.80;1.00;;;;;;4972885;28;20467;-60
2022/12/11 04:40:11;;;;;;;19.17;13.27;;;1.70;1.00;;;;;;4984719;28;20451;-59
2022/12/11 04:42:36;;;;;;;21.40;15.10;;;1.70;1.00;;;;;;4983503;28;20634;-60
2022/12/11 04:45:03;;;;;;;23.50;14.10;;;1.70;1.00;;;;;;4987365;28;20483;-58
2022/12/11 04:47:28;;;;;;;19.60;11.50;;;1.70;1.00;;;;;;4982499;28;20227;-58
2022/12/11 04:49:54;;;;;;;17.97;11.30;;;1.60;1.00;;;;;;4984389;28;20451;-59
2022/12/11 04:52:20;;;;;;;21.63;13.67;;;1.50;1.00;;;;;;4986594;28;20183;-59
2022/12/11 04:54:46;;;;;;;19.57;12.30;;;1.50;1.00;;;;;;4986423;28;20192;-58
2022/12/11 04:57:11;;;;;;;20.67;11.70;;;1.60;1.00;;;;;;4982491;28;20202;-58
2022/12/11 04:59:37;;;;;;;16.40;11.17;;;1.60;1.00;;;;;;4994376;28;20339;-58
2022/12/11 05:02:03;;;;;;;22.17;12.60;;;1.60;1.00;;;;;;4981237;28;20663;-57
2022/12/11 05:04:33;;;;;;;20.83;12.40;;;1.70;1.00;;;;;;4984747;28;20271;-58
2022/12/11 05:06:59;;;;;;;23.33;14.70;;;1.80;1.00;;;;;;4987558;28;20526;-58
2022/12/11 05:09:26;;;;;;;20.87;12.60;;;1.80;1.00;;;;;;4985190;28;20541;-57
2022/12/11 05:11:52;;;;;;;21.63;12.63;;;1.90;1.00;;;;;;4987587;28;20447;-57
2022/12/11 05:14:17;;;;;;;23.23;14.97;;;2.00;1.00;;;;;;4986355;28;20778;-58
2022/12/11 05:16:43;;;;;;;24.27;15.17;;;1.90;1.00;;;;;;4988268;28;20451;-60
2022/12/11 05:19:09;;;;;;;21.27;14.40;;;2.00;1.00;;;;;;4989101;28;20203;-59
2022/12/11 05:21:35;;;;;;;32.90;16.70;;;1.90;1.00;;;;;;4980020;28;20196;-58
2022/12/11 05:24:00;;;;;;;29.80;14.80;;;1.70;1.00;;;;;;4984146;28;20462;-58
2022/12/11 05:26:26;;;;;;;31.63;15.23;;;1.70;1.00;;;;;;4978866;28;20194;-58
2022/12/11 05:28:53;;;;;;;31.90;17.07;;;1.50;1.00;;;;;;4983967;28;20661;-58
2022/12/11 05:31:24;;;;;;;32.40;17.50;;;1.40;1.00;;;;;;4977357;28;20318;-58
2022/12/11 05:33:51;;;;;;;28.90;16.00;;;1.90;1.00;;;;;;4975286;28;20980;-58
2022/12/11 05:36:23;;;;;;;25.20;14.97;;;1.80;1.00;;;;;;4973958;28;20451;-59
2022/12/11 05:38:49;;;;;;;29.17;16.40;;;1.00;1.00;;;;;;4974893;28;20980;-57
2022/12/11 05:41:18;;;;;;;26.00;14.63;;;0.90;1.00;;;;;;4974376;28;20507;-59
2022/12/11 05:43:44;;;;;;;23.93;14.47;;;0.90;1.00;;;;;;4971636;28;20458;-58
2022/12/11 05:46:24;;;;;;;25.40;15.03;;;1.10;1.00;;;;;;4974412;28;20984;-58
2022/12/11 05:48:53;;;;;;;26.03;13.30;;;1.00;1.00;;;;;;4973527;28;20478;-58
2022/12/11 05:51:19;;;;;;;21.53;14.10;;;1.00;1.00;;;;;;4975045;28;20456;-58
2022/12/11 05:53:47;;;;;;;25.63;13.70;;;0.70;1.00;;;;;;4975264;28;20572;-57
2022/12/11 05:56:19;;;;;;;20.83;12.83;;;0.70;1.00;;;;;;4971839;28;22073;-57
2022/12/11 05:58:45;;;;;;;23.57;13.90;;;0.80;1.00;;;;;;4979406;28;20451;-57
2022/12/11 06:01:24;;;;;;;20.30;12.93;;;0.80;1.00;;;;;;4985842;28;20451;-58
2022/12/11 06:03:50;;;;;;;23.10;14.33;;;1.00;1.00;;;;;;4990441;28;20469;-59
2022/12/11 06:06:16;;;;;;;16.83;10.13;;;0.70;1.00;;;;;;4990149;28;20452;-58
2022/12/11 06:08:42;;;;;;;19.13;12.70;;;1.10;1.00;;;;;;4986212;28;20973;-58
2022/12/11 06:11:08;;;;;;;21.83;11.93;;;1.00;1.00;;;;;;4987144;28;20495;-58
2022/12/11 06:13:34;;;;;;;17.50;11.63;;;1.00;1.00;;;;;;4983325;28;20449;-58
2022/12/11 06:16:04;;;;;;;15.13;10.37;;;0.90;1.00;;;;;;4989523;28;20526;-57
2022/12/11 06:18:30;;;;;;;19.73;11.53;;;0.80;1.00;;;;;;4989373;28;20754;-57
2022/12/11 06:20:56;;;;;;;21.07;11.47;;;0.70;1.00;;;;;;4989428;28;20557;-57
2022/12/11 06:23:22;;;;;;;17.37;10.27;;;0.70;1.00;;;;;;4983431;28;20450;-58
2022/12/11 06:25:47;;;;;;;18.70;11.73;;;0.70;1.00;;;;;;4984182;28;20250;-58
2022/12/11 06:28:13;;;;;;;18.90;11.60;;;0.60;1.00;;;;;;4989589;28;20467;-57
2022/12/11 06:30:38;;;;;;;19.20;11.33;;;0.60;1.00;;;;;;4992090;28;20195;-58
2022/12/11 06:33:04;;;;;;;15.63;10.30;;;0.60;1.00;;;;;;4986720;28;20673;-58
2022/12/11 06:35:30;;;;;;;27.57;15.80;;;0.60;1.00;;;;;;4984765;28;20218;-58
2022/12/11 06:37:56;;;;;;;15.17;9.60;;;0.60;1.00;;;;;;4988976;28;20458;-58
2022/12/11 06:40:21;;;;;;;20.00;10.53;;;0.60;1.00;;;;;;4987359;28;20198;-58
2022/12/11 06:42:47;;;;;;;18.90;12.03;;;0.60;1.00;;;;;;4989185;28;20203;-58
2022/12/11 06:45:13;;;;;;;14.70;10.43;;;0.60;1.00;;;;;;4986612;28;20284;-58
2022/12/11 06:47:38;;;;;;;16.97;10.10;;;0.60;1.00;;;;;;4986989;28;20255;-57
2022/12/11 06:50:05;;;;;;;14.87;11.20;;;0.50;1.00;;;;;;4988197;28;20649;-59
2022/12/11 06:52:31;;;;;;;17.73;10.97;;;0.50;1.00;;;;;;4988991;28;20475;-58
2022/12/11 06:54:57;;;;;;;19.33;10.47;;;0.40;1.00;;;;;;4982723;28;20466;-58
2022/12/11 06:57:22;;;;;;;16.53;11.50;;;0.30;1.00;;;;;;4994812;28;20691;-58
2022/12/11 06:59:48;;;;;;;23.43;11.50;;;0.30;1.00;;;;;;4989302;28;20737;-58
2022/12/11 07:02:16;;;;;;;19.13;11.17;;;0.20;1.00;;;;;;4988107;28;20751;-57
2022/12/11 07:04:42;;;;;;;14.17;9.20;;;0.20;1.00;;;;;;4986074;28;20201;-58
2022/12/11 07:07:08;;;;;;;14.37;9.60;;;0.40;1.00;;;;;;4988291;28;20478;-57
2022/12/11 07:09:35;;;;;;;16.57;9.87;;;0.40;1.00;;;;;;4984788;28;20506;-58
2022/12/11 07:12:02;;;;;;;20.40;12.40;;;0.30;1.00;;;;;;4985394;28;20457;-57
2022/12/11 07:14:29;;;;;;;17.57;10.87;;;0.30;1.00;;;;;;4984052;28;20456;-59
2022/12/11 07:16:55;;;;;;;16.60;9.10;;;0.30;1.00;;;;;;4998174;28;20455;-58
2022/12/11 07:19:21;;;;;;;19.60;10.13;;;0.20;1.00;;;;;;4987673;28;20449;-57
2022/12/11 07:21:46;;;;;;;18.50;10.77;;;0.10;1.00;;;;;;4987855;28;20547;-58
2022/12/11 07:24:12;;;;;;;15.73;8.87;;;0.10;1.00;;;;;;4989360;28;20200;-58
2022/12/11 07:26:37;;;;;;;20.23;10.87;;;0.10;1.00;;;;;;4992732;28;20192;-57
2022/12/11 07:29:03;;;;;;;16.00;9.23;;;0.10;1.00;;;;;;4986988;28;20664;-58
2022/12/11 07:31:29;;;;;;;16.20;10.00;;;0.20;1.00;;;;;;4990169;28;20623;-58
2022/12/11 07:34:04;;;;;;;16.40;9.53;;;0.20;1.00;;;;;;4989173;28;20696;-57
2022/12/11 07:36:30;;;;;;;15.90;9.40;;;0.20;1.00;;;;;;4987874;28;20957;-59
2022/12/11 07:38:58;;;;;;;17.77;10.53;;;0.30;1.00;;;;;;4984940;28;20494;-58
2022/12/11 07:41:23;;;;;;;16.47;10.00;;;0.40;1.00;;;;;;4986947;28;20442;-57
2022/12/11 07:43:49;;;;;;;15.73;10.30;;;0.40;1.00;;;;;;4987681;28;20450;-57
2022/12/11 07:46:24;;;;;;;16.07;10.00;;;0.30;1.00;;;;;;4988159;28;20184;-56
2022/12/11 07:48:50;;;;;;;16.57;10.30;;;0.30;1.00;;;;;;4988604;28;20227;-59
2022/12/11 07:51:27;;;;;;;14.57;9.43;;;0.30;1.00;;;;;;4985885;28;20439;-59
2022/12/11 07:53:58;;;;;;;15.23;10.00;;;0.30;1.00;;;;;;4987644;28;20443;-57
2022/12/11 07:56:25;;;;;;;15.60;8.90;;;0.10;1.00;;;;;;4985984;28;20830;-57
2022/12/11 07:58:51;;;;;;;17.87;10.53;;;0.20;1.00;;;;;;4986955;28;20462;-56
2022/12/11 08:01:25;;;;;;;22.17;10.97;;;0.30;1.00;;;;;;4982395;28;20451;-57
2022/12/11 08:03:52;;;;;;;19.67;11.27;;;0.40;1.00;;;;;;4986913;28;20206;-58
2022/12/11 08:06:20;;;;;;;18.77;9.93;;;0.30;1.00;;;;;;4984276;28;20958;-57
2022/12/11 08:08:45;;;;;;;20.67;10.50;;;0.40;1.00;;;;;;4983106;28;20469;-57
2022/12/11 08:11:14;;;;;;;17.07;9.90;;;0.30;1.00;;;;;;4984851;28;20829;-56
2022/12/11 08:13:40;;;;;;;15.60;9.33;;;0.20;1.00;;;;;;4984407;28;20201;-57
2022/12/11 08:16:10;;;;;;;16.53;11.10;;;0.20;1.00;;;;;;4991981;28;21009;-56
2022/12/11 08:18:36;;;;;;;16.67;10.50;;;0.20;1.00;;;;;;4987413;28;20553;-57
2022/12/11 08:21:06;;;;;;;19.00;10.70;;;0.00;1.00;;;;;;4983729;28;20557;-56
2022/12/11 08:23:31;;;;;;;19.87;12.10;;;0.40;1.00;;;;;;4984881;28;20563;-56
2022/12/11 08:25:57;;;;;;;23.60;11.33;;;0.10;1.00;;;;;;4982668;28;20542;-56
2022/12/11 08:28:22;;;;;;;15.73;10.50;;;0.30;1.00;;;;;;4979994;28;20216;-56
2022/12/11 08:30:48;;;;;;;15.30;8.87;;;0.30;1.00;;;;;;4980650;28;20199;-57
2022/12/11 08:33:13;;;;;;;20.57;10.73;;;0.20;1.00;;;;;;4987691;28;20200;-57
2022/12/11 08:35:39;;;;;;;13.87;9.93;;;0.40;1.00;;;;;;4984206;28;20295;-57
2022/12/11 08:38:05;;;;;;;18.03;10.40;;;0.30;1.00;;;;;;4987689;28;20191;-57
2022/12/11 08:40:31;;;;;;;13.57;8.87;;;0.30;1.00;;;;;;4985202;28;20450;-56
2022/12/11 08:42:56;;;;;;;15.27;8.67;;;0.20;1.00;;;;;;4986546;28;20200;-56
2022/12/11 08:45:22;;;;;;;17.53;10.00;;;0.30;1.00;;;;;;4984939;28;20203;-56
2022/12/11 08:47:47;;;;;;;14.00;9.17;;;0.40;1.00;;;;;;4987708;28;20738;-57
2022/12/11 08:50:13;;;;;;;17.90;11.20;;;0.50;1.00;;;;;;4984996;28;20175;-59
2022/12/11 08:52:38;;;;;;;16.33;9.93;;;0.40;1.00;;;;;;4984118;28;20210;-56
2022/12/11 08:55:04;;;;;;;17.47;10.33;;;0.50;1.00;;;;;;4987161;28;20219;-58
2022/12/11 08:57:30;;;;;;;15.83;10.00;;;0.60;1.00;;;;;;4982508;28;20204;-59
2022/12/11 08:59:56;;;;;;;16.97;10.57;;;0.50;1.00;;;;;;4988299;28;20454;-58
2022/12/11 09:02:21;;;;;;;17.50;11.60;;;0.60;1.00;;;;;;4983807;28;20696;-57
2022/12/11 09:04:47;;;;;;;17.47;10.53;;;0.70;1.00;;;;;;4979159;28;20192;-59
2022/12/11 09:07:12;;;;;;;15.07;9.47;;;0.70;1.00;;;;;;4985736;28;20285;-58
2022/12/11 09:09:38;;;;;;;15.00;9.83;;;0.80;1.00;;;;;;4985683;28;20199;-58
2022/12/11 09:12:04;;;;;;;11.80;8.63;;;0.80;1.00;;;;;;4983049;28;20283;-58
2022/12/11 09:14:30;;;;;;;16.80;10.60;;;0.40;1.00;;;;;;4982168;28;20194;-58
2022/12/11 09:16:55;;;;;;;18.20;11.57;;;0.40;1.00;;;;;;4982409;28;20207;-57
2022/12/11 09:19:21;;;;;;;18.27;10.10;;;0.30;1.00;;;;;;4967937;28;20450;-58
2022/12/11 09:21:47;;;;;;;15.50;9.40;;;0.40;1.00;;;;;;4985850;28;21135;-59
2022/12/11 09:24:14;;;;;;;16.03;10.83;;;0.30;1.00;;;;;;4985663;28;20665;-59
2022/12/11 09:26:40;;;;;;;15.77;9.27;;;0.40;1.00;;;;;;4985817;28;20455;-58
2022/12/11 09:29:06;;;;;;;21.13;11.00;;;0.50;1.00;;;;;;4989244;28;20455;-58
2022/12/11 09:31:34;;;;;;;14.70;9.37;;;0.60;1.00;;;;;;4989431;28;20459;-58
2022/12/11 09:34:03;;;;;;;15.67;10.27;;;0.70;1.00;;;;;;5000487;28;20504;-60
2022/12/11 09:36:29;;;;;;;14.60;9.90;;;0.40;1.00;;;;;;4990927;28;20447;-58
2022/12/11 09:38:58;;;;;;;15.33;10.10;;;0.60;1.00;;;;;;4990562;28;20538;-58
2022/12/11 09:41:52;;;;;;;14.33;8.80;;;0.70;1.00;;;;;;4987371;28;20192;-58
2022/12/11 09:44:27;;;;;;;18.57;11.07;;;0.70;1.00;;;;;;4986644;28;20816;-58
2022/12/11 09:46:52;;;;;;;13.33;8.70;;;0.80;1.00;;;;;;4991799;28;20525;-57
2022/12/11 09:49:36;;;;;;;19.07;12.07;;;0.90;1.00;;;;;;4990467;28;20604;-59
2022/12/11 09:52:18;;;;;;;17.07;9.97;;;1.00;1.00;;;;;;4991202;28;20217;-57
2022/12/11 09:54:49;;;;;;;15.27;10.97;;;1.00;1.00;;;;;;4990887;28;20442;-61
2022/12/11 09:57:29;;;;;;;17.93;11.00;;;1.10;1.00;;;;;;4991151;28;20458;-58
2022/12/11 10:00:14;;;;;;;14.07;9.73;;;1.10;1.00;;;;;;4988794;28;20820;-58
2022/12/11 10:03:08;;;;;;;14.03;9.87;;;1.00;1.00;;;;;;4987692;28;20480;-58
2022/12/11 10:05:59;;;;;;;17.47;10.60;;;0.90;1.00;;;;;;4993321;28;20493;-58
2022/12/11 10:08:42;;;;;;;15.03;8.93;;;0.70;1.00;;;;;;4984111;28;20478;-58
2022/12/11 10:11:32;;;;;;;18.90;10.77;;;0.80;1.00;;;;;;4989973;28;20438;-57
2022/12/11 10:14:22;;;;;;;16.43;10.50;;;0.90;1.00;;;;;;4985712;28;20455;-57
2022/12/11 10:16:51;;;;;;;17.40;10.97;;;0.90;1.00;;;;;;4987079;28;21239;-59
2022/12/11 10:19:26;;;;;;;20.23;11.27;;;0.90;1.00;;;;;;4989250;28;20873;-59
2022/12/11 10:21:53;;;;;;;14.37;9.60;;;0.80;1.00;;;;;;4987290;28;20522;-60
2022/12/11 10:24:54;;;;;;;17.53;10.90;;;1.00;1.00;;;;;;4997368;28;20544;-57
2022/12/11 10:27:27;;;;;;;17.00;10.57;;;1.10;1.00;;;;;;4984983;28;20482;-60
2022/12/11 10:30:11;;;;;;;14.20;10.67;;;1.40;1.00;;;;;;4986060;28;20450;-59
2022/12/11 10:32:51;;;;;;;20.90;12.43;;;1.20;1.00;;;;;;4981249;28;21214;-58
2022/12/11 10:35:35;;;;;;;17.77;11.93;;;1.20;1.00;;;;;;4989622;28;20447;-59
2022/12/11 10:38:26;;;;;;;16.10;10.13;;;1.50;1.00;;;;;;4987954;28;20960;-58
2022/12/11 10:40:59;;;;;;;16.10;10.10;;;1.60;1.00;;;;;;4985233;28;20467;-58
2022/12/11 10:43:52;;;;;;;15.47;10.27;;;1.60;1.00;;;;;;4983847;28;20467;-57
2022/12/11 10:46:23;;;;;;;15.33;8.63;;;1.40;1.00;;;;;;4978342;28;20455;-58
2022/12/11 10:48:52;;;;;;;17.07;9.87;;;1.50;1.00;;;;;;4986378;28;20541;-58
2022/12/11 10:51:31;;;;;;;14.27;9.80;;;1.50;1.00;;;;;;4989185;28;20470;-59
2022/12/11 10:54:07;;;;;;;14.43;9.50;;;1.50;1.00;;;;;;4987056;28;20447;-59
2022/12/11 10:56:36;;;;;;;11.50;7.83;;;1.70;1.00;;;;;;4985312;28;20442;-59
2022/12/11 10:59:02;;;;;;;14.70;9.70;;;1.90;1.00;;;;;;4981923;28;20530;-60
2022/12/11 11:01:31;;;;;;;14.27;9.00;;;1.90;1.00;;;;;;4986744;28;20595;-56
2022/12/11 11:04:00;;;;;;;15.33;10.13;;;1.90;1.00;;;;;;4983055;28;20811;-56
2022/12/11 11:06:26;;;;;;;12.83;9.60;;;1.90;1.00;;;;;;4989801;28;20463;-56
2022/12/11 11:08:56;;;;;;;13.10;9.80;;;1.90;1.00;;;;;;4985344;28;20625;-56
2022/12/11 11:11:49;;;;;;;12.70;8.57;;;2.00;1.00;;;;;;4986065;28;20185;-57
2022/12/11 11:14:20;;;;;;;13.87;9.33;;;1.90;1.00;;;;;;4962500;28;20530;-56
2022/12/11 11:16:48;;;;;;;17.37;9.60;;;1.80;1.00;;;;;;4989803;28;20464;-56
2022/12/11 11:19:35;;;;;;;13.33;8.97;;;1.90;1.00;;;;;;4986203;28;20795;-57
2022/12/11 11:22:11;;;;;;;18.17;11.27;;;1.70;1.00;;;;;;4989211;28;20446;-57
2022/12/11 11:24:52;;;;;;;16.83;10.20;;;1.50;1.00;;;;;;4987904;28;20538;-57
2022/12/11 11:27:34;;;;;;;18.10;10.90;;;1.50;1.00;;;;;;4983230;28;20494;-57
2022/12/11 11:30:07;;;;;;;19.40;10.53;;;1.60;1.00;;;;;;4984965;28;20462;-56
2022/12/11 11:32:37;;;;;;;15.30;9.70;;;1.50;1.00;;;;;;4987229;28;20452;-57
2022/12/11 11:35:10;;;;;;;16.90;12.10;;;1.50;1.00;;;;;;4985015;28;20454;-57
2022/12/11 11:37:37;;;;;;;13.07;9.70;;;1.40;1.00;;;;;;4986831;28;20502;-56
2022/12/11 11:40:13;;;;;;;14.87;9.47;;;1.20;1.00;;;;;;4984684;28;21024;-56
2022/12/11 11:43:04;;;;;;;14.57;9.10;;;1.30;1.00;;;;;;4986205;28;20804;-56
2022/12/11 11:45:45;;;;;;;15.20;10.23;;;1.10;1.00;;;;;;4986413;28;20454;-56
2022/12/11 11:48:26;;;;;;;16.77;9.97;;;1.20;1.00;;;;;;4985873;28;20476;-57
2022/12/11 11:50:52;;;;;;;14.20;9.97;;;1.20;1.00;;;;;;4985970;28;20447;-56
2022/12/11 11:53:36;;;;;;;16.87;11.10;;;1.20;1.00;;;;;;4984463;28;20511;-56
2022/12/11 11:56:13;;;;;;;17.43;11.10;;;1.10;1.00;;;;;;4985778;28;20443;-56
2022/12/11 11:59:01;;;;;;;13.80;9.50;;;1.10;1.00;;;;;;4984281;28;20435;-55
2022/12/11 12:01:27;;;;;;;14.80;10.57;;;1.00;1.00;;;;;;4984992;28;20613;-55
2022/12/11 12:03:54;;;;;;;15.03;9.97;;;1.80;1.00;;;;;;4986571;28;20487;-56
2022/12/11 12:06:26;;;;;;;20.13;12.40;;;0.90;1.00;;;;;;4990598;28;20466;-56
2022/12/11 12:09:11;;;;;;;19.10;11.50;;;1.00;1.00;;;;;;4995270;28;20520;-56
2022/12/11 12:11:48;;;;;;;17.33;10.30;;;0.90;1.00;;;;;;4993719;28;20436;-57
2022/12/11 12:14:19;;;;;;;19.27;12.43;;;0.80;1.00;;;;;;4988594;28;20590;-56
2022/12/11 12:17:00;;;;;;;19.80;11.87;;;0.80;1.00;;;;;;4986273;28;20509;-57
2022/12/11 12:19:47;;;;;;;17.63;11.87;;;0.70;1.00;;;;;;4986419;28;21444;-57
2022/12/11 12:22:24;;;;;;;16.63;10.63;;;0.90;1.00;;;;;;4987947;28;20450;-56
2022/12/11 12:25:06;;;;;;;20.40;11.27;;;0.90;1.00;;;;;;4984864;28;20463;-57
2022/12/11 12:28:02;;;;;;;16.33;11.30;;;0.90;1.00;;;;;;4988755;28;20579;-57
2022/12/11 12:30:37;;;;;;;16.77;9.47;;;1.00;1.00;;;;;;4985704;28;20454;-57
2022/12/11 12:33:05;;;;;;;18.70;11.07;;;0.90;1.00;;;;;;4985566;28;20530;-56
2022/12/11 12:35:36;;;;;;;15.43;10.17;;;0.90;1.00;;;;;;4988113;28;20460;-56
2022/12/11 12:38:11;;;;;;;18.80;10.20;;;0.90;1.00;;;;;;4992989;28;20477;-57
2022/12/11 12:40:54;;;;;;;12.43;9.50;;;0.90;1.00;;;;;;4984040;28;20488;-56
2022/12/11 12:43:56;;;;;;;15.17;9.80;;;1.00;1.00;;;;;;4983131;28;20507;-56
2022/12/11 12:46:54;;;;;;;17.57;10.63;;;1.00;1.00;;;;;;4992503;28;20481;-56
2022/12/11 12:49:35;;;;;;;16.67;10.70;;;1.20;1.00;;;;;;4986208;28;20475;-57
2022/12/11 12:52:02;;;;;;;16.50;9.67;;;1.20;1.00;;;;;;4970168;28;20466;-57
2022/12/11 12:54:30;;;;;;;16.03;11.03;;;1.20;1.00;;;;;;4975013;28;20547;-58
2022/12/11 12:56:58;;;;;;;17.70;9.80;;;1.20;1.00;;;;;;4977310;28;20467;-57
2022/12/11 12:59:26;;;;;;;12.63;8.40;;;1.30;1.00;;;;;;4979419;28;20486;-56
2022/12/11 13:02:01;;;;;;;15.63;9.60;;;1.40;1.00;;;;;;4978494;28;20542;-56
2022/12/11 13:04:41;;;;;;;13.30;10.23;;;1.40;1.00;;;;;;4983333;28;20456;-59
2022/12/11 13:07:17;;;;;;;16.00;11.03;;;1.40;1.00;;;;;;4988718;28;20560;-57
2022/12/11 13:09:53;;;;;;;14.83;9.77;;;1.40;1.00;;;;;;4987998;28;20957;-57
2022/12/11 13:12:38;;;;;;;16.07;9.63;;;1.20;1.00;;;;;;4988881;28;20527;-57
2022/12/11 13:15:04;;;;;;;16.97;10.80;;;1.20;1.00;;;;;;4986543;28;20955;-57